sensor_id;sensor_type;location;lat;lon;timestamp;temperature;humidity
20891;DHT22;10605;52.968;8.844;2023-07-24T00:00:15;18.40;99.90
20891;DHT22;10605;52.968;8.844;2023-07-24T00:02:40;18.40;99.90
20891;DHT22;10605;52.968;8.844;2023-07-24T00:05:06;18.40;99.90
20891;DHT22;10605;52.968;8.844;2023-07-24T00:07:32;18.40;99.90
20891;DHT22;10605;52.968;8.844;2023-07-24T00:09:57;18.40;99.90
20891;DHT22;10605;52.968;8.844;2023-07-24T00:12:23;18.50;99.90
20891;DHT22;10605;52.968;8.844;2023-07-24T00:14:49;18.50;99.90
20891;DHT22;10605;52.968;8.844;2023-07-24T00:17:15;18.50;99.90
20891;DHT22;10605;52.968;8.844;2023-07-24T00:19:40;18.50;99.90
20891;DHT22;10605;52.968;8.844;2023-07-24T00:22:06;18.50;99.90
20891;DHT22;10605;52.968;8.844;2023-07-24T00:24:32;18.50;99.90
20891;DHT22;10605;52.968;8.844;2023-07-24T00:26:58;18.50;99.90
20891;DHT22;10605;52.968;8.844;2023-07-24T00:29:23;18.50;99.90
20891;DHT22;10605;52.968;8.844;2023-07-24T00:31:49;18.40;99.90
20891;DHT22;10605;52.968;8.844;2023-07-24T00:34:15;18.40;99.90
20891;DHT22;10605;52.968;8.844;2023-07-24T00:36:40;18.30;99.90
20891;DHT22;10605;52.968;8.844;2023-07-24T00:39:06;18.30;99.90
20891;DHT22;10605;52.968;8.844;2023-07-24T00:41:32;18.30;99.90
20891;DHT22;10605;52.968;8.844;2023-07-24T00:43:58;18.30;99.90
20891;DHT22;10605;52.968;8.844;2023-07-24T00:46:24;18.40;99.90
20891;DHT22;10605;52.968;8.844;2023-07-24T00:48:50;18.40;99.90
20891;DHT22;10605;52.968;8.844;2023-07-24T00:51:16;18.40;99.90
20891;DHT22;10605;52.968;8.844;2023-07-24T00:53:42;18.30;99.90
20891;DHT22;10605;52.968;8.844;2023-07-24T00:56:08;18.20;99.90
20891;DHT22;10605;52.968;8.844;2023-07-24T00:58:37;18.30;99.90
20891;DHT22;10605;52.968;8.844;2023-07-24T01:01:04;18.20;99.90
20891;DHT22;10605;52.968;8.844;2023-07-24T01:03:34;18.10;99.90
20891;DHT22;10605;52.968;8.844;2023-07-24T01:06:03;18.10;99.90
20891;DHT22;10605;52.968;8.844;2023-07-24T01:08:29;18.00;99.90
20891;DHT22;10605;52.968;8.844;2023-07-24T01:10:57;18.00;99.90
20891;DHT22;10605;52.968;8.844;2023-07-24T01:13:27;18.00;99.90
20891;DHT22;10605;52.968;8.844;2023-07-24T01:16:13;18.00;99.90
20891;DHT22;10605;52.968;8.844;2023-07-24T01:18:39;17.90;99.90
20891;DHT22;10605;52.968;8.844;2023-07-24T01:21:08;17.80;99.90
20891;DHT22;10605;52.968;8.844;2023-07-24T01:24:19;17.80;99.90
20891;DHT22;10605;52.968;8.844;2023-07-24T01:26:49;17.80;99.90
20891;DHT22;10605;52.968;8.844;2023-07-24T01:29:15;17.80;99.90
20891;DHT22;10605;52.968;8.844;2023-07-24T01:31:41;17.80;99.90
20891;DHT22;10605;52.968;8.844;2023-07-24T01:34:06;17.80;99.90
20891;DHT22;10605;52.968;8.844;2023-07-24T01:36:32;17.70;99.90
20891;DHT22;10605;52.968;8.844;2023-07-24T01:38:58;17.80;99.90
20891;DHT22;10605;52.968;8.844;2023-07-24T01:41:25;17.80;99.90
20891;DHT22;10605;52.968;8.844;2023-07-24T01:43:51;17.80;99.90
20891;DHT22;10605;52.968;8.844;2023-07-24T01:46:16;17.80;99.90
20891;DHT22;10605;52.968;8.844;2023-07-24T01:48:42;17.80;99.90
20891;DHT22;10605;52.968;8.844;2023-07-24T01:51:07;17.80;99.90
20891;DHT22;10605;52.968;8.844;2023-07-24T01:53:33;17.70;99.90
20891;DHT22;10605;52.968;8.844;2023-07-24T01:55:59;17.70;99.90
20891;DHT22;10605;52.968;8.844;2023-07-24T01:58:24;17.70;99.90
20891;DHT22;10605;52.968;8.844;2023-07-24T02:00:50;17.60;99.90
20891;DHT22;10605;52.968;8.844;2023-07-24T02:03:16;17.60;99.90
20891;DHT22;10605;52.968;8.844;2023-07-24T02:05:41;17.60;99.90
20891;DHT22;10605;52.968;8.844;2023-07-24T02:08:07;17.60;99.90
20891;DHT22;10605;52.968;8.844;2023-07-24T02:10:36;17.70;99.90
20891;DHT22;10605;52.968;8.844;2023-07-24T02:13:01;17.70;99.90
20891;DHT22;10605;52.968;8.844;2023-07-24T02:15:27;17.70;99.90
20891;DHT22;10605;52.968;8.844;2023-07-24T02:17:52;17.80;99.90
20891;DHT22;10605;52.968;8.844;2023-07-24T02:20:19;17.80;99.90
20891;DHT22;10605;52.968;8.844;2023-07-24T02:22:44;17.90;99.90
20891;DHT22;10605;52.968;8.844;2023-07-24T02:25:10;17.90;99.90
20891;DHT22;10605;52.968;8.844;2023-07-24T02:27:36;17.90;99.90
20891;DHT22;10605;52.968;8.844;2023-07-24T02:30:02;17.90;99.90
20891;DHT22;10605;52.968;8.844;2023-07-24T02:32:28;17.80;99.90
20891;DHT22;10605;52.968;8.844;2023-07-24T02:34:53;17.80;99.90
20891;DHT22;10605;52.968;8.844;2023-07-24T02:37:19;17.70;99.90
20891;DHT22;10605;52.968;8.844;2023-07-24T02:39:45;17.70;99.90
20891;DHT22;10605;52.968;8.844;2023-07-24T02:42:11;17.60;99.90
20891;DHT22;10605;52.968;8.844;2023-07-24T02:44:37;17.60;99.90
20891;DHT22;10605;52.968;8.844;2023-07-24T02:47:03;17.60;99.90
20891;DHT22;10605;52.968;8.844;2023-07-24T02:49:29;17.50;99.90
20891;DHT22;10605;52.968;8.844;2023-07-24T02:51:54;17.40;99.90
20891;DHT22;10605;52.968;8.844;2023-07-24T02:54:20;17.40;99.90
20891;DHT22;10605;52.968;8.844;2023-07-24T02:56:46;17.30;99.90
20891;DHT22;10605;52.968;8.844;2023-07-24T02:59:11;17.30;99.90
20891;DHT22;10605;52.968;8.844;2023-07-24T03:01:37;17.20;99.90
20891;DHT22;10605;52.968;8.844;2023-07-24T03:04:03;17.20;99.90
20891;DHT22;10605;52.968;8.844;2023-07-24T03:06:30;17.20;99.90
20891;DHT22;10605;52.968;8.844;2023-07-24T03:08:56;17.10;99.90
20891;DHT22;10605;52.968;8.844;2023-07-24T03:11:22;17.10;99.90
20891;DHT22;10605;52.968;8.844;2023-07-24T03:13:47;17.10;99.90
20891;DHT22;10605;52.968;8.844;2023-07-24T03:16:13;17.10;99.90
20891;DHT22;10605;52.968;8.844;2023-07-24T03:18:38;17.00;99.90
20891;DHT22;10605;52.968;8.844;2023-07-24T03:21:04;17.00;99.90
20891;DHT22;10605;52.968;8.844;2023-07-24T03:23:30;17.00;99.90
20891;DHT22;10605;52.968;8.844;2023-07-24T03:25:55;17.00;99.90
20891;DHT22;10605;52.968;8.844;2023-07-24T03:28:21;17.00;99.90
20891;DHT22;10605;52.968;8.844;2023-07-24T03:30:47;17.00;99.90
20891;DHT22;10605;52.968;8.844;2023-07-24T03:33:12;17.00;99.90
20891;DHT22;10605;52.968;8.844;2023-07-24T03:35:38;17.10;99.90
20891;DHT22;10605;52.968;8.844;2023-07-24T03:38:05;17.10;99.90
20891;DHT22;10605;52.968;8.844;2023-07-24T03:40:30;17.10;99.90
20891;DHT22;10605;52.968;8.844;2023-07-24T03:42:56;17.10;99.90
20891;DHT22;10605;52.968;8.844;2023-07-24T03:45:22;17.10;99.90
20891;DHT22;10605;52.968;8.844;2023-07-24T03:47:47;17.20;99.90
20891;DHT22;10605;52.968;8.844;2023-07-24T03:50:13;17.30;99.90
20891;DHT22;10605;52.968;8.844;2023-07-24T03:52:39;17.40;99.90
20891;DHT22;10605;52.968;8.844;2023-07-24T03:55:05;17.50;99.90
20891;DHT22;10605;52.968;8.844;2023-07-24T03:57:31;17.60;99.90
20891;DHT22;10605;52.968;8.844;2023-07-24T03:59:56;17.60;99.90
20891;DHT22;10605;52.968;8.844;2023-07-24T04:02:23;17.70;99.90
20891;DHT22;10605;52.968;8.844;2023-07-24T04:04:49;17.80;99.90
20891;DHT22;10605;52.968;8.844;2023-07-24T04:07:14;17.80;99.90
20891;DHT22;10605;52.968;8.844;2023-07-24T04:09:40;17.90;99.90
20891;DHT22;10605;52.968;8.844;2023-07-24T04:12:06;17.90;99.90
20891;DHT22;10605;52.968;8.844;2023-07-24T04:14:31;18.00;99.90
20891;DHT22;10605;52.968;8.844;2023-07-24T04:16:57;18.10;99.90
20891;DHT22;10605;52.968;8.844;2023-07-24T04:19:23;18.20;99.90
20891;DHT22;10605;52.968;8.844;2023-07-24T04:21:48;18.30;99.90
20891;DHT22;10605;52.968;8.844;2023-07-24T04:24:14;18.30;99.90
20891;DHT22;10605;52.968;8.844;2023-07-24T04:26:39;18.40;99.90
20891;DHT22;10605;52.968;8.844;2023-07-24T04:29:06;18.60;99.90
20891;DHT22;10605;52.968;8.844;2023-07-24T04:31:32;18.80;99.90
20891;DHT22;10605;52.968;8.844;2023-07-24T04:33:58;18.90;99.90
20891;DHT22;10605;52.968;8.844;2023-07-24T04:36:24;19.10;99.90
20891;DHT22;10605;52.968;8.844;2023-07-24T04:38:49;19.40;99.90
20891;DHT22;10605;52.968;8.844;2023-07-24T04:41:15;19.60;99.90
20891;DHT22;10605;52.968;8.844;2023-07-24T04:43:41;19.70;99.90
20891;DHT22;10605;52.968;8.844;2023-07-24T04:46:07;19.80;99.90
20891;DHT22;10605;52.968;8.844;2023-07-24T04:48:32;19.90;99.90
20891;DHT22;10605;52.968;8.844;2023-07-24T04:50:58;19.80;99.90
20891;DHT22;10605;52.968;8.844;2023-07-24T04:53:23;19.60;99.90
20891;DHT22;10605;52.968;8.844;2023-07-24T04:55:49;19.50;99.90
20891;DHT22;10605;52.968;8.844;2023-07-24T04:58:15;19.50;99.90
20891;DHT22;10605;52.968;8.844;2023-07-24T05:00:41;19.30;99.90
20891;DHT22;10605;52.968;8.844;2023-07-24T05:03:06;19.30;99.90
20891;DHT22;10605;52.968;8.844;2023-07-24T05:05:39;19.20;99.90
20891;DHT22;10605;52.968;8.844;2023-07-24T05:08:05;19.20;99.90
20891;DHT22;10605;52.968;8.844;2023-07-24T05:10:36;19.40;99.90
20891;DHT22;10605;52.968;8.844;2023-07-24T05:13:02;19.50;99.90
20891;DHT22;10605;52.968;8.844;2023-07-24T05:15:27;19.60;99.90
20891;DHT22;10605;52.968;8.844;2023-07-24T05:17:53;19.90;99.90
20891;DHT22;10605;52.968;8.844;2023-07-24T05:20:19;20.10;99.90
20891;DHT22;10605;52.968;8.844;2023-07-24T05:22:44;20.00;99.90
20891;DHT22;10605;52.968;8.844;2023-07-24T05:25:10;20.00;99.90
20891;DHT22;10605;52.968;8.844;2023-07-24T05:27:36;19.90;99.90
20891;DHT22;10605;52.968;8.844;2023-07-24T05:30:02;19.90;99.90
20891;DHT22;10605;52.968;8.844;2023-07-24T05:32:28;19.80;99.90
20891;DHT22;10605;52.968;8.844;2023-07-24T05:34:53;19.80;99.90
20891;DHT22;10605;52.968;8.844;2023-07-24T05:37:19;19.90;99.90
20891;DHT22;10605;52.968;8.844;2023-07-24T05:39:44;20.00;99.90
20891;DHT22;10605;52.968;8.844;2023-07-24T05:42:10;20.20;99.90
20891;DHT22;10605;52.968;8.844;2023-07-24T05:44:36;20.40;99.90
20891;DHT22;10605;52.968;8.844;2023-07-24T05:47:03;20.50;99.90
20891;DHT22;10605;52.968;8.844;2023-07-24T05:49:28;20.60;99.90
20891;DHT22;10605;52.968;8.844;2023-07-24T05:51:54;20.50;99.90
20891;DHT22;10605;52.968;8.844;2023-07-24T05:54:20;20.50;99.90
20891;DHT22;10605;52.968;8.844;2023-07-24T05:56:45;20.40;99.90
20891;DHT22;10605;52.968;8.844;2023-07-24T05:59:11;20.40;99.90
20891;DHT22;10605;52.968;8.844;2023-07-24T06:01:36;20.20;99.90
20891;DHT22;10605;52.968;8.844;2023-07-24T06:04:02;20.00;99.90
20891;DHT22;10605;52.968;8.844;2023-07-24T06:06:28;19.90;99.90
20891;DHT22;10605;52.968;8.844;2023-07-24T06:08:53;19.80;99.90
20891;DHT22;10605;52.968;8.844;2023-07-24T06:11:19;19.70;99.90
20891;DHT22;10605;52.968;8.844;2023-07-24T06:13:45;19.50;99.90
20891;DHT22;10605;52.968;8.844;2023-07-24T06:16:10;19.40;99.90
20891;DHT22;10605;52.968;8.844;2023-07-24T06:18:38;19.20;99.90
20891;DHT22;10605;52.968;8.844;2023-07-24T06:21:03;19.30;99.90
20891;DHT22;10605;52.968;8.844;2023-07-24T06:23:29;19.20;99.90
20891;DHT22;10605;52.968;8.844;2023-07-24T06:25:54;19.30;99.90
20891;DHT22;10605;52.968;8.844;2023-07-24T06:28:20;19.40;99.90
20891;DHT22;10605;52.968;8.844;2023-07-24T06:30:46;19.50;99.90
20891;DHT22;10605;52.968;8.844;2023-07-24T06:33:12;19.60;99.90
20891;DHT22;10605;52.968;8.844;2023-07-24T06:35:37;19.70;99.90
20891;DHT22;10605;52.968;8.844;2023-07-24T06:38:03;19.70;99.90
20891;DHT22;10605;52.968;8.844;2023-07-24T06:40:29;19.70;99.90
20891;DHT22;10605;52.968;8.844;2023-07-24T06:42:54;19.60;99.90
20891;DHT22;10605;52.968;8.844;2023-07-24T06:45:20;19.60;99.90
20891;DHT22;10605;52.968;8.844;2023-07-24T06:47:46;19.40;99.90
20891;DHT22;10605;52.968;8.844;2023-07-24T06:50:11;19.40;99.90
20891;DHT22;10605;52.968;8.844;2023-07-24T06:52:37;19.30;99.90
20891;DHT22;10605;52.968;8.844;2023-07-24T06:55:03;19.30;99.90
20891;DHT22;10605;52.968;8.844;2023-07-24T06:57:28;19.20;99.90
20891;DHT22;10605;52.968;8.844;2023-07-24T06:59:54;19.20;99.90
20891;DHT22;10605;52.968;8.844;2023-07-24T07:02:20;19.10;99.90
20891;DHT22;10605;52.968;8.844;2023-07-24T07:04:45;19.10;99.90
20891;DHT22;10605;52.968;8.844;2023-07-24T07:07:11;19.20;99.90
20891;DHT22;10605;52.968;8.844;2023-07-24T07:09:37;19.10;99.90
20891;DHT22;10605;52.968;8.844;2023-07-24T07:12:02;19.10;99.90
20891;DHT22;10605;52.968;8.844;2023-07-24T07:14:28;19.10;99.90
20891;DHT22;10605;52.968;8.844;2023-07-24T07:16:53;19.20;99.90
20891;DHT22;10605;52.968;8.844;2023-07-24T07:19:19;19.50;99.90
20891;DHT22;10605;52.968;8.844;2023-07-24T07:21:45;19.80;99.90
20891;DHT22;10605;52.968;8.844;2023-07-24T07:24:10;19.90;99.90
20891;DHT22;10605;52.968;8.844;2023-07-24T07:26:36;20.10;99.90
20891;DHT22;10605;52.968;8.844;2023-07-24T07:29:02;20.30;99.90
20891;DHT22;10605;52.968;8.844;2023-07-24T07:31:27;20.30;99.90
20891;DHT22;10605;52.968;8.844;2023-07-24T07:33:53;20.30;99.90
20891;DHT22;10605;52.968;8.844;2023-07-24T07:36:18;20.20;99.90
20891;DHT22;10605;52.968;8.844;2023-07-24T07:38:44;20.20;99.90
20891;DHT22;10605;52.968;8.844;2023-07-24T07:41:10;20.20;99.90
20891;DHT22;10605;52.968;8.844;2023-07-24T07:43:35;20.10;99.90
20891;DHT22;10605;52.968;8.844;2023-07-24T07:46:03;20.10;99.90
20891;DHT22;10605;52.968;8.844;2023-07-24T07:48:28;20.30;99.90
20891;DHT22;10605;52.968;8.844;2023-07-24T07:50:54;20.40;99.90
20891;DHT22;10605;52.968;8.844;2023-07-24T07:53:20;20.50;99.90
20891;DHT22;10605;52.968;8.844;2023-07-24T07:55:46;21.00;99.90
20891;DHT22;10605;52.968;8.844;2023-07-24T07:58:11;21.60;99.90
20891;DHT22;10605;52.968;8.844;2023-07-24T08:00:37;22.00;99.90
20891;DHT22;10605;52.968;8.844;2023-07-24T08:03:06;22.70;99.90
20891;DHT22;10605;52.968;8.844;2023-07-24T08:05:32;23.10;99.90
20891;DHT22;10605;52.968;8.844;2023-07-24T08:07:57;23.30;99.90
20891;DHT22;10605;52.968;8.844;2023-07-24T08:10:23;23.20;99.90
20891;DHT22;10605;52.968;8.844;2023-07-24T08:12:49;23.00;99.90
20891;DHT22;10605;52.968;8.844;2023-07-24T08:15:15;22.90;99.90
20891;DHT22;10605;52.968;8.844;2023-07-24T08:17:40;22.90;99.90
20891;DHT22;10605;52.968;8.844;2023-07-24T08:20:06;22.80;99.90
20891;DHT22;10605;52.968;8.844;2023-07-24T08:22:32;22.90;99.90
20891;DHT22;10605;52.968;8.844;2023-07-24T08:24:58;23.10;99.90
20891;DHT22;10605;52.968;8.844;2023-07-24T08:27:23;23.30;99.90
20891;DHT22;10605;52.968;8.844;2023-07-24T08:29:52;23.60;99.90
20891;DHT22;10605;52.968;8.844;2023-07-24T08:32:21;23.80;99.90
20891;DHT22;10605;52.968;8.844;2023-07-24T08:34:46;23.90;99.90
20891;DHT22;10605;52.968;8.844;2023-07-24T08:37:12;23.90;99.90
20891;DHT22;10605;52.968;8.844;2023-07-24T08:39:38;23.50;99.90
20891;DHT22;10605;52.968;8.844;2023-07-24T08:42:10;23.00;99.90
20891;DHT22;10605;52.968;8.844;2023-07-24T08:44:37;22.40;99.90
20891;DHT22;10605;52.968;8.844;2023-07-24T08:47:03;22.10;99.90
20891;DHT22;10605;52.968;8.844;2023-07-24T08:49:30;22.10;99.90
20891;DHT22;10605;52.968;8.844;2023-07-24T08:51:57;21.80;99.90
20891;DHT22;10605;52.968;8.844;2023-07-24T08:54:24;21.80;99.90
20891;DHT22;10605;52.968;8.844;2023-07-24T08:56:52;22.10;99.90
20891;DHT22;10605;52.968;8.844;2023-07-24T08:59:19;22.30;99.90
20891;DHT22;10605;52.968;8.844;2023-07-24T09:01:45;22.30;99.90
20891;DHT22;10605;52.968;8.844;2023-07-24T09:04:10;22.30;99.90
20891;DHT22;10605;52.968;8.844;2023-07-24T09:06:37;22.40;99.90
20891;DHT22;10605;52.968;8.844;2023-07-24T10:04:29;35.10;94.70
20891;DHT22;10605;52.968;8.844;2023-07-24T10:06:55;34.70;92.20
20891;DHT22;10605;52.968;8.844;2023-07-24T10:09:21;33.00;92.20
20891;DHT22;10605;52.968;8.844;2023-07-24T10:11:49;30.10;98.70
20891;DHT22;10605;52.968;8.844;2023-07-24T10:14:15;30.40;99.90
20891;DHT22;10605;52.968;8.844;2023-07-24T10:16:41;29.40;99.90
20891;DHT22;10605;52.968;8.844;2023-07-24T10:19:14;29.90;99.90
20891;DHT22;10605;52.968;8.844;2023-07-24T10:21:48;28.50;99.90
20891;DHT22;10605;52.968;8.844;2023-07-24T10:24:15;30.10;99.90
20891;DHT22;10605;52.968;8.844;2023-07-24T10:26:41;33.70;99.80
20891;DHT22;10605;52.968;8.844;2023-07-24T10:29:06;35.20;93.70
20891;DHT22;10605;52.968;8.844;2023-07-24T10:31:32;35.40;92.70
20891;DHT22;10605;52.968;8.844;2023-07-24T10:34:07;36.00;89.00
20891;DHT22;10605;52.968;8.844;2023-07-24T10:36:34;36.50;79.70
20891;DHT22;10605;52.968;8.844;2023-07-24T10:39:00;37.20;78.20
20891;DHT22;10605;52.968;8.844;2023-07-24T10:41:37;37.60;72.00
20891;DHT22;10605;52.968;8.844;2023-07-24T10:44:03;36.70;72.80
20891;DHT22;10605;52.968;8.844;2023-07-24T10:46:55;35.50;71.40
20891;DHT22;10605;52.968;8.844;2023-07-24T10:49:21;36.20;68.00
20891;DHT22;10605;52.968;8.844;2023-07-24T10:51:47;37.30;67.40
20891;DHT22;10605;52.968;8.844;2023-07-24T10:54:21;37.70;61.10
20891;DHT22;10605;52.968;8.844;2023-07-24T10:56:47;37.50;58.50
20891;DHT22;10605;52.968;8.844;2023-07-24T10:59:12;38.60;55.50
20891;DHT22;10605;52.968;8.844;2023-07-24T11:01:40;38.70;54.20
20891;DHT22;10605;52.968;8.844;2023-07-24T11:04:06;37.80;51.80
20891;DHT22;10605;52.968;8.844;2023-07-24T11:06:32;38.00;52.50
20891;DHT22;10605;52.968;8.844;2023-07-24T11:08:59;38.30;51.10
20891;DHT22;10605;52.968;8.844;2023-07-24T11:11:33;38.30;48.60
20891;DHT22;10605;52.968;8.844;2023-07-24T11:14:00;39.20;48.60
20891;DHT22;10605;52.968;8.844;2023-07-24T11:16:27;39.20;48.10
20891;DHT22;10605;52.968;8.844;2023-07-24T11:18:53;40.00;45.20
20891;DHT22;10605;52.968;8.844;2023-07-24T11:21:19;39.00;43.90
20891;DHT22;10605;52.968;8.844;2023-07-24T11:23:55;38.30;42.20
20891;DHT22;10605;52.968;8.844;2023-07-24T11:26:26;39.10;42.40
20891;DHT22;10605;52.968;8.844;2023-07-24T11:28:52;39.20;42.50
20891;DHT22;10605;52.968;8.844;2023-07-24T11:31:18;39.10;39.30
20891;DHT22;10605;52.968;8.844;2023-07-24T11:33:49;39.90;39.60
20891;DHT22;10605;52.968;8.844;2023-07-24T11:36:15;39.80;41.40
20891;DHT22;10605;52.968;8.844;2023-07-24T11:38:41;38.30;41.30
20891;DHT22;10605;52.968;8.844;2023-07-24T11:41:08;38.10;41.10
20891;DHT22;10605;52.968;8.844;2023-07-24T11:43:34;39.10;39.30
20891;DHT22;10605;52.968;8.844;2023-07-24T11:45:59;38.50;39.10
20891;DHT22;10605;52.968;8.844;2023-07-24T11:48:25;39.50;39.80
20891;DHT22;10605;52.968;8.844;2023-07-24T11:50:55;36.40;41.60
20891;DHT22;10605;52.968;8.844;2023-07-24T11:53:26;38.40;41.00
20891;DHT22;10605;52.968;8.844;2023-07-24T11:55:54;36.70;41.20
20891;DHT22;10605;52.968;8.844;2023-07-24T11:58:21;38.60;41.60
20891;DHT22;10605;52.968;8.844;2023-07-24T12:00:47;39.60;39.60
20891;DHT22;10605;52.968;8.844;2023-07-24T12:03:27;39.00;36.40
20891;DHT22;10605;52.968;8.844;2023-07-24T12:05:53;39.10;37.90
20891;DHT22;10605;52.968;8.844;2023-07-24T12:08:21;38.80;38.00
20891;DHT22;10605;52.968;8.844;2023-07-24T12:10:54;40.00;39.50
20891;DHT22;10605;52.968;8.844;2023-07-24T12:13:20;40.20;37.70
20891;DHT22;10605;52.968;8.844;2023-07-24T12:15:46;40.10;35.70
20891;DHT22;10605;52.968;8.844;2023-07-24T12:18:11;36.90;40.00
20891;DHT22;10605;52.968;8.844;2023-07-24T12:20:37;36.20;41.50
20891;DHT22;10605;52.968;8.844;2023-07-24T12:23:03;38.60;41.50
20891;DHT22;10605;52.968;8.844;2023-07-24T12:25:29;37.60;40.70
20891;DHT22;10605;52.968;8.844;2023-07-24T12:27:55;39.50;40.20
20891;DHT22;10605;52.968;8.844;2023-07-24T12:30:21;36.20;42.00
20891;DHT22;10605;52.968;8.844;2023-07-24T12:32:47;35.60;47.20
20891;DHT22;10605;52.968;8.844;2023-07-24T12:35:13;35.50;46.20
20891;DHT22;10605;52.968;8.844;2023-07-24T12:37:38;34.00;47.30
20891;DHT22;10605;52.968;8.844;2023-07-24T12:40:05;32.00;50.60
20891;DHT22;10605;52.968;8.844;2023-07-24T12:42:31;31.10;53.80
20891;DHT22;10605;52.968;8.844;2023-07-24T12:44:56;29.90;60.40
20891;DHT22;10605;52.968;8.844;2023-07-24T12:47:23;31.30;57.40
20891;DHT22;10605;52.968;8.844;2023-07-24T12:49:49;32.90;53.80
20891;DHT22;10605;52.968;8.844;2023-07-24T12:52:14;32.90;54.60
20891;DHT22;10605;52.968;8.844;2023-07-24T12:54:40;36.50;48.10
20891;DHT22;10605;52.968;8.844;2023-07-24T12:57:06;37.60;42.70
20891;DHT22;10605;52.968;8.844;2023-07-24T12:59:31;36.20;43.70
20891;DHT22;10605;52.968;8.844;2023-07-24T13:01:57;32.70;52.10
20891;DHT22;10605;52.968;8.844;2023-07-24T13:04:23;31.70;58.30
20891;DHT22;10605;52.968;8.844;2023-07-24T13:06:49;35.30;52.60
20891;DHT22;10605;52.968;8.844;2023-07-24T13:09:15;36.80;46.00
20891;DHT22;10605;52.968;8.844;2023-07-24T13:11:40;36.90;45.30
20891;DHT22;10605;52.968;8.844;2023-07-24T13:14:06;37.30;43.40
20891;DHT22;10605;52.968;8.844;2023-07-24T13:16:32;36.80;43.50
20891;DHT22;10605;52.968;8.844;2023-07-24T13:18:57;35.70;42.50
20891;DHT22;10605;52.968;8.844;2023-07-24T13:21:23;35.60;44.20
20891;DHT22;10605;52.968;8.844;2023-07-24T13:23:49;33.80;48.70
20891;DHT22;10605;52.968;8.844;2023-07-24T13:26:15;31.90;52.70
20891;DHT22;10605;52.968;8.844;2023-07-24T13:28:41;30.20;58.10
20891;DHT22;10605;52.968;8.844;2023-07-24T13:31:20;29.00;65.80
20891;DHT22;10605;52.968;8.844;2023-07-24T13:33:47;28.10;72.00
20891;DHT22;10605;52.968;8.844;2023-07-24T13:36:13;27.50;79.40
20891;DHT22;10605;52.968;8.844;2023-07-24T13:38:40;27.30;83.50
20891;DHT22;10605;52.968;8.844;2023-07-24T13:41:06;27.30;87.50
20891;DHT22;10605;52.968;8.844;2023-07-24T13:43:33;27.40;89.40
20891;DHT22;10605;52.968;8.844;2023-07-24T13:45:59;27.20;89.40
20891;DHT22;10605;52.968;8.844;2023-07-24T13:48:27;27.50;89.80
20891;DHT22;10605;52.968;8.844;2023-07-24T13:50:53;28.10;90.40
20891;DHT22;10605;52.968;8.844;2023-07-24T13:53:18;28.10;89.60
20891;DHT22;10605;52.968;8.844;2023-07-24T13:55:44;28.10;88.80
20891;DHT22;10605;52.968;8.844;2023-07-24T13:58:09;28.00;84.60
20891;DHT22;10605;52.968;8.844;2023-07-24T14:00:35;28.20;85.50
20891;DHT22;10605;52.968;8.844;2023-07-24T14:03:01;28.30;89.40
20891;DHT22;10605;52.968;8.844;2023-07-24T14:05:27;28.20;85.10
20891;DHT22;10605;52.968;8.844;2023-07-24T14:07:53;27.80;88.00
20891;DHT22;10605;52.968;8.844;2023-07-24T14:10:19;27.40;89.90
20891;DHT22;10605;52.968;8.844;2023-07-24T14:12:45;27.20;90.00
20891;DHT22;10605;52.968;8.844;2023-07-24T14:15:10;27.20;90.60
20891;DHT22;10605;52.968;8.844;2023-07-24T14:17:36;27.40;90.90
20891;DHT22;10605;52.968;8.844;2023-07-24T14:20:02;27.20;88.40
20891;DHT22;10605;52.968;8.844;2023-07-24T14:22:28;27.50;90.30
20891;DHT22;10605;52.968;8.844;2023-07-24T14:24:54;27.80;90.40
20891;DHT22;10605;52.968;8.844;2023-07-24T14:27:20;28.10;89.30
20891;DHT22;10605;52.968;8.844;2023-07-24T14:29:45;28.10;86.20
20891;DHT22;10605;52.968;8.844;2023-07-24T14:32:11;28.10;86.20
20891;DHT22;10605;52.968;8.844;2023-07-24T14:34:37;27.90;88.20
20891;DHT22;10605;52.968;8.844;2023-07-24T14:37:05;27.30;88.80
20891;DHT22;10605;52.968;8.844;2023-07-24T15:10:37;27.30;90.50
20891;DHT22;10605;52.968;8.844;2023-07-24T15:13:03;27.20;88.80
20891;DHT22;10605;52.968;8.844;2023-07-24T15:15:29;27.10;90.00
20891;DHT22;10605;52.968;8.844;2023-07-24T15:17:55;27.00;90.10
20891;DHT22;10605;52.968;8.844;2023-07-24T15:20:21;27.00;90.70
20891;DHT22;10605;52.968;8.844;2023-07-24T15:22:47;27.10;90.60
20891;DHT22;10605;52.968;8.844;2023-07-24T15:25:15;26.90;90.30
20891;DHT22;10605;52.968;8.844;2023-07-24T15:27:41;26.70;90.90
20891;DHT22;10605;52.968;8.844;2023-07-24T15:30:07;26.70;92.00
20891;DHT22;10605;52.968;8.844;2023-07-24T15:32:33;27.00;91.80
20891;DHT22;10605;52.968;8.844;2023-07-24T15:34:58;26.50;93.70
20891;DHT22;10605;52.968;8.844;2023-07-24T15:37:25;26.10;93.70
20891;DHT22;10605;52.968;8.844;2023-07-24T15:39:51;25.80;94.70
20891;DHT22;10605;52.968;8.844;2023-07-24T15:42:18;25.70;94.70
20891;DHT22;10605;52.968;8.844;2023-07-24T15:44:46;25.50;94.80
20891;DHT22;10605;52.968;8.844;2023-07-24T15:47:12;25.20;96.00
20891;DHT22;10605;52.968;8.844;2023-07-24T15:49:38;25.00;97.00
20891;DHT22;10605;52.968;8.844;2023-07-24T15:52:05;25.00;97.60
20891;DHT22;10605;52.968;8.844;2023-07-24T15:54:31;25.00;97.30
20891;DHT22;10605;52.968;8.844;2023-07-24T15:56:56;25.00;99.10
20891;DHT22;10605;52.968;8.844;2023-07-24T15:59:22;24.90;98.70
20891;DHT22;10605;52.968;8.844;2023-07-24T16:01:51;25.10;99.90
20891;DHT22;10605;52.968;8.844;2023-07-24T16:04:20;25.40;98.80
20891;DHT22;10605;52.968;8.844;2023-07-24T16:06:46;25.20;99.00
20891;DHT22;10605;52.968;8.844;2023-07-24T16:09:12;24.80;99.60
20891;DHT22;10605;52.968;8.844;2023-07-24T16:11:40;23.80;99.90
20891;DHT22;10605;52.968;8.844;2023-07-24T16:14:06;22.80;99.90
20891;DHT22;10605;52.968;8.844;2023-07-24T16:16:32;22.40;99.90
20891;DHT22;10605;52.968;8.844;2023-07-24T16:21:41;21.50;99.90
20891;DHT22;10605;52.968;8.844;2023-07-24T16:24:10;21.10;99.90
20891;DHT22;10605;52.968;8.844;2023-07-24T16:26:36;20.90;99.90
20891;DHT22;10605;52.968;8.844;2023-07-24T16:29:05;20.70;99.90
20891;DHT22;10605;52.968;8.844;2023-07-24T16:31:32;20.40;99.90
20891;DHT22;10605;52.968;8.844;2023-07-24T16:34:00;20.40;99.90
20891;DHT22;10605;52.968;8.844;2023-07-24T16:36:26;20.30;99.90
20891;DHT22;10605;52.968;8.844;2023-07-24T16:38:51;20.10;99.90
20891;DHT22;10605;52.968;8.844;2023-07-24T16:41:20;20.00;99.90
20891;DHT22;10605;52.968;8.844;2023-07-24T16:43:45;19.90;99.90
20891;DHT22;10605;52.968;8.844;2023-07-24T16:46:11;19.70;99.90
20891;DHT22;10605;52.968;8.844;2023-07-24T16:48:39;19.60;99.90
20891;DHT22;10605;52.968;8.844;2023-07-24T16:51:07;19.40;99.90
20891;DHT22;10605;52.968;8.844;2023-07-24T16:53:33;19.40;99.90